sensor_id;sensor_type;location;lat;lon;timestamp;pressure;altitude;pressure_sealevel;temperature;humidity
54144;BME280;40050;47.324;18.792;2023-04-25T00:00:50;993.33;;;14.63;63.84
54144;BME280;40050;47.324;18.792;2023-04-25T00:02:51;993.33;;;14.68;63.68
54144;BME280;40050;47.324;18.792;2023-04-25T00:04:52;993.18;;;14.62;63.94
54144;BME280;40050;47.324;18.792;2023-04-25T00:06:53;993.29;;;14.61;64.02
54144;BME280;40050;47.324;18.792;2023-04-25T00:08:54;993.22;;;14.60;64.18
54144;BME280;40050;47.324;18.792;2023-04-25T00:10:56;993.20;;;14.59;64.24
54144;BME280;40050;47.324;18.792;2023-04-25T00:12:57;993.15;;;14.57;64.25
54144;BME280;40050;47.324;18.792;2023-04-25T00:14:58;993.16;;;14.59;64.50
54144;BME280;40050;47.324;18.792;2023-04-25T00:16:59;993.19;;;14.60;64.54
54144;BME280;40050;47.324;18.792;2023-04-25T00:19:00;993.20;;;14.57;64.63
54144;BME280;40050;47.324;18.792;2023-04-25T00:21:02;993.25;;;14.55;64.77
54144;BME280;40050;47.324;18.792;2023-04-25T00:23:03;993.15;;;14.48;65.08
54144;BME280;40050;47.324;18.792;2023-04-25T00:25:04;993.11;;;14.51;65.06
54144;BME280;40050;47.324;18.792;2023-04-25T00:27:05;993.15;;;14.49;65.14
54144;BME280;40050;47.324;18.792;2023-04-25T00:29:06;993.20;;;14.49;65.26
54144;BME280;40050;47.324;18.792;2023-04-25T00:31:07;993.09;;;14.45;65.16
54144;BME280;40050;47.324;18.792;2023-04-25T00:33:08;992.82;;;14.25;65.40
54144;BME280;40050;47.324;18.792;2023-04-25T00:35:09;993.12;;;14.47;65.47
54144;BME280;40050;47.324;18.792;2023-04-25T00:37:10;993.08;;;14.38;65.66
54144;BME280;40050;47.324;18.792;2023-04-25T00:39:12;993.07;;;14.42;65.63
54144;BME280;40050;47.324;18.792;2023-04-25T00:41:13;993.02;;;14.40;65.46
54144;BME280;40050;47.324;18.792;2023-04-25T00:43:14;993.00;;;14.42;65.43
54144;BME280;40050;47.324;18.792;2023-04-25T00:45:14;992.98;;;14.44;65.34
54144;BME280;40050;47.324;18.792;2023-04-25T00:47:15;992.94;;;14.41;65.32
54144;BME280;40050;47.324;18.792;2023-04-25T00:49:16;993.01;;;14.39;65.35
54144;BME280;40050;47.324;18.792;2023-04-25T00:51:19;993.02;;;14.38;65.17
54144;BME280;40050;47.324;18.792;2023-04-25T00:53:23;992.99;;;14.36;65.30
54144;BME280;40050;47.324;18.792;2023-04-25T00:55:24;992.67;;;14.18;64.96
54144;BME280;40050;47.324;18.792;2023-04-25T00:57:25;992.97;;;14.37;64.92
54144;BME280;40050;47.324;18.792;2023-04-25T00:59:27;992.99;;;14.33;65.05
54144;BME280;40050;47.324;18.792;2023-04-25T01:01:28;992.97;;;14.33;64.83
54144;BME280;40050;47.324;18.792;2023-04-25T01:03:30;993.00;;;14.36;64.77
54144;BME280;40050;47.324;18.792;2023-04-25T01:05:33;992.99;;;14.32;64.61
54144;BME280;40050;47.324;18.792;2023-04-25T01:07:34;993.00;;;14.35;64.49
54144;BME280;40050;47.324;18.792;2023-04-25T01:09:35;992.96;;;14.34;64.38
54144;BME280;40050;47.324;18.792;2023-04-25T01:11:36;993.04;;;14.30;64.43
54144;BME280;40050;47.324;18.792;2023-04-25T01:13:37;993.00;;;14.26;64.32
54144;BME280;40050;47.324;18.792;2023-04-25T01:15:38;992.97;;;14.26;64.25
54144;BME280;40050;47.324;18.792;2023-04-25T01:17:39;993.01;;;14.26;64.09
54144;BME280;40050;47.324;18.792;2023-04-25T01:19:41;992.98;;;14.26;63.71
54144;BME280;40050;47.324;18.792;2023-04-25T01:21:42;993.01;;;14.25;63.72
54144;BME280;40050;47.324;18.792;2023-04-25T01:23:43;992.95;;;14.24;63.65
54144;BME280;40050;47.324;18.792;2023-04-25T01:25:44;992.96;;;14.21;63.49
54144;BME280;40050;47.324;18.792;2023-04-25T01:27:45;992.94;;;14.20;63.55
54144;BME280;40050;47.324;18.792;2023-04-25T01:29:46;992.91;;;14.16;63.60
54144;BME280;40050;47.324;18.792;2023-04-25T01:31:47;992.93;;;14.17;63.38
54144;BME280;40050;47.324;18.792;2023-04-25T01:33:48;992.76;;;14.12;62.96
54144;BME280;40050;47.324;18.792;2023-04-25T01:35:49;992.87;;;14.17;63.05
54144;BME280;40050;47.324;18.792;2023-04-25T01:37:51;992.88;;;14.19;62.74
54144;BME280;40050;47.324;18.792;2023-04-25T01:39:52;992.81;;;14.15;62.51
54144;BME280;40050;47.324;18.792;2023-04-25T01:41:53;992.90;;;14.15;62.36
54144;BME280;40050;47.324;18.792;2023-04-25T01:43:54;992.92;;;14.14;62.23
54144;BME280;40050;47.324;18.792;2023-04-25T01:45:55;992.90;;;14.13;62.05
54144;BME280;40050;47.324;18.792;2023-04-25T01:47:56;992.88;;;14.15;61.99
54144;BME280;40050;47.324;18.792;2023-04-25T01:49:56;992.92;;;14.07;61.64
54144;BME280;40050;47.324;18.792;2023-04-25T01:51:57;992.82;;;14.09;61.53
54144;BME280;40050;47.324;18.792;2023-04-25T01:53:58;992.90;;;14.07;61.63
54144;BME280;40050;47.324;18.792;2023-04-25T01:55:59;992.92;;;14.07;61.20
54144;BME280;40050;47.324;18.792;2023-04-25T01:58:02;992.93;;;14.08;61.13
54144;BME280;40050;47.324;18.792;2023-04-25T02:00:04;992.83;;;14.09;61.16
54144;BME280;40050;47.324;18.792;2023-04-25T02:02:06;992.83;;;14.00;61.19
54144;BME280;40050;47.324;18.792;2023-04-25T02:04:07;992.85;;;14.03;60.79
54144;BME280;40050;47.324;18.792;2023-04-25T02:06:07;992.88;;;14.05;60.64
54144;BME280;40050;47.324;18.792;2023-04-25T02:08:08;992.91;;;13.99;60.78
54144;BME280;40050;47.324;18.792;2023-04-25T02:10:09;992.92;;;14.03;60.54
54144;BME280;40050;47.324;18.792;2023-04-25T02:12:10;992.85;;;13.95;60.47
54144;BME280;40050;47.324;18.792;2023-04-25T02:14:11;992.88;;;14.01;60.54
54144;BME280;40050;47.324;18.792;2023-04-25T02:16:12;992.86;;;14.04;60.28
54144;BME280;40050;47.324;18.792;2023-04-25T02:18:13;992.86;;;14.03;60.07
54144;BME280;40050;47.324;18.792;2023-04-25T02:20:14;992.90;;;13.99;59.87
54144;BME280;40050;47.324;18.792;2023-04-25T02:22:15;992.93;;;13.98;60.08
54144;BME280;40050;47.324;18.792;2023-04-25T02:24:16;992.94;;;13.99;59.90
54144;BME280;40050;47.324;18.792;2023-04-25T02:26:17;992.93;;;13.98;59.50
54144;BME280;40050;47.324;18.792;2023-04-25T02:28:18;992.91;;;13.97;59.25
54144;BME280;40050;47.324;18.792;2023-04-25T02:30:19;992.91;;;13.97;59.24
54144;BME280;40050;47.324;18.792;2023-04-25T02:32:19;992.89;;;13.98;59.31
54144;BME280;40050;47.324;18.792;2023-04-25T02:34:20;992.90;;;14.00;59.21
54144;BME280;40050;47.324;18.792;2023-04-25T02:36:21;992.95;;;14.00;58.83
54144;BME280;40050;47.324;18.792;2023-04-25T02:38:22;992.86;;;13.96;59.05
54144;BME280;40050;47.324;18.792;2023-04-25T02:40:23;992.88;;;13.98;58.81
54144;BME280;40050;47.324;18.792;2023-04-25T02:42:26;992.86;;;13.95;58.93
54144;BME280;40050;47.324;18.792;2023-04-25T02:44:27;992.84;;;13.92;58.96
54144;BME280;40050;47.324;18.792;2023-04-25T02:46:28;992.87;;;13.95;58.90
54144;BME280;40050;47.324;18.792;2023-04-25T02:48:29;992.86;;;13.97;58.81
54144;BME280;40050;47.324;18.792;2023-04-25T02:50:30;992.82;;;13.98;58.48
54144;BME280;40050;47.324;18.792;2023-04-25T02:52:30;992.84;;;13.91;58.61
54144;BME280;40050;47.324;18.792;2023-04-25T02:54:31;992.87;;;13.95;58.49
54144;BME280;40050;47.324;18.792;2023-04-25T02:56:32;992.84;;;13.94;58.71
54144;BME280;40050;47.324;18.792;2023-04-25T02:58:33;992.79;;;13.92;58.63
54144;BME280;40050;47.324;18.792;2023-04-25T03:00:34;992.83;;;13.93;58.57
54144;BME280;40050;47.324;18.792;2023-04-25T03:02:35;992.82;;;13.92;58.72
54144;BME280;40050;47.324;18.792;2023-04-25T03:04:36;992.79;;;13.91;58.47
54144;BME280;40050;47.324;18.792;2023-04-25T03:06:37;992.81;;;13.86;58.84
54144;BME280;40050;47.324;18.792;2023-04-25T03:08:38;992.53;;;13.63;58.76
54144;BME280;40050;47.324;18.792;2023-04-25T03:10:39;992.84;;;13.83;58.79
54144;BME280;40050;47.324;18.792;2023-04-25T03:12:40;992.83;;;13.84;58.58
54144;BME280;40050;47.324;18.792;2023-04-25T03:14:41;992.82;;;13.80;58.85
54144;BME280;40050;47.324;18.792;2023-04-25T03:16:42;992.91;;;13.83;58.46
54144;BME280;40050;47.324;18.792;2023-04-25T03:18:43;992.88;;;13.80;58.51
54144;BME280;40050;47.324;18.792;2023-04-25T03:20:43;992.94;;;13.85;58.36
54144;BME280;40050;47.324;18.792;2023-04-25T03:22:44;992.87;;;13.76;58.25
54144;BME280;40050;47.324;18.792;2023-04-25T03:24:45;992.72;;;13.59;58.35
54144;BME280;40050;47.324;18.792;2023-04-25T03:26:46;992.93;;;13.75;58.44
54144;BME280;40050;47.324;18.792;2023-04-25T03:28:47;992.75;;;13.55;58.18
54144;BME280;40050;47.324;18.792;2023-04-25T03:30:48;992.91;;;13.60;58.44
54144;BME280;40050;47.324;18.792;2023-04-25T03:32:49;993.05;;;13.68;58.37
54144;BME280;40050;47.324;18.792;2023-04-25T03:34:50;993.08;;;13.69;58.34
54144;BME280;40050;47.324;18.792;2023-04-25T03:36:51;993.15;;;13.70;58.44
54144;BME280;40050;47.324;18.792;2023-04-25T03:38:52;993.18;;;13.72;58.42
54144;BME280;40050;47.324;18.792;2023-04-25T03:40:53;993.14;;;13.66;58.60
54144;BME280;40050;47.324;18.792;2023-04-25T03:42:54;993.21;;;13.68;58.72
54144;BME280;40050;47.324;18.792;2023-04-25T03:44:55;993.15;;;13.71;58.56
54144;BME280;40050;47.324;18.792;2023-04-25T03:46:56;993.17;;;13.71;58.73
54144;BME280;40050;47.324;18.792;2023-04-25T03:49:00;993.17;;;13.66;58.91
54144;BME280;40050;47.324;18.792;2023-04-25T03:51:01;993.20;;;13.67;58.99
54144;BME280;40050;47.324;18.792;2023-04-25T03:53:02;993.25;;;13.62;58.79
54144;BME280;40050;47.324;18.792;2023-04-25T03:55:03;993.23;;;13.61;59.14
54144;BME280;40050;47.324;18.792;2023-04-25T03:57:04;993.26;;;13.56;59.14
54144;BME280;40050;47.324;18.792;2023-04-25T03:59:05;993.23;;;13.59;59.50
54144;BME280;40050;47.324;18.792;2023-04-25T04:01:06;993.31;;;13.53;59.86
54144;BME280;40050;47.324;18.792;2023-04-25T04:03:07;993.36;;;13.54;59.80
54144;BME280;40050;47.324;18.792;2023-04-25T04:05:08;993.32;;;13.53;59.82
54144;BME280;40050;47.324;18.792;2023-04-25T04:07:09;993.39;;;13.53;59.87
54144;BME280;40050;47.324;18.792;2023-04-25T04:09:10;993.37;;;13.48;60.35
54144;BME280;40050;47.324;18.792;2023-04-25T04:11:11;993.40;;;13.47;60.81
54144;BME280;40050;47.324;18.792;2023-04-25T04:13:12;993.39;;;13.40;61.24
54144;BME280;40050;47.324;18.792;2023-04-25T04:15:13;993.39;;;13.38;61.53
54144;BME280;40050;47.324;18.792;2023-04-25T04:17:14;993.34;;;13.32;61.78
54144;BME280;40050;47.324;18.792;2023-04-25T04:19:15;993.39;;;13.27;62.27
54144;BME280;40050;47.324;18.792;2023-04-25T04:21:16;993.40;;;13.20;62.80
54144;BME280;40050;47.324;18.792;2023-04-25T04:23:17;993.43;;;13.17;62.90
54144;BME280;40050;47.324;18.792;2023-04-25T04:25:18;993.40;;;13.09;63.36
54144;BME280;40050;47.324;18.792;2023-04-25T04:27:19;993.49;;;13.10;63.38
54144;BME280;40050;47.324;18.792;2023-04-25T04:29:23;993.46;;;13.07;63.71
54144;BME280;40050;47.324;18.792;2023-04-25T04:31:24;993.43;;;13.01;63.74
54144;BME280;40050;47.324;18.792;2023-04-25T04:33:25;993.42;;;13.00;64.38
54144;BME280;40050;47.324;18.792;2023-04-25T04:35:26;993.43;;;12.94;64.69
54144;BME280;40050;47.324;18.792;2023-04-25T04:37:27;993.44;;;12.91;65.19
54144;BME280;40050;47.324;18.792;2023-04-25T04:39:28;993.46;;;12.86;65.72
54144;BME280;40050;47.324;18.792;2023-04-25T04:41:29;993.47;;;12.84;65.61
54144;BME280;40050;47.324;18.792;2023-04-25T04:43:30;993.41;;;12.77;65.79
54144;BME280;40050;47.324;18.792;2023-04-25T04:45:31;993.48;;;12.82;66.33
54144;BME280;40050;47.324;18.792;2023-04-25T04:47:32;993.51;;;12.76;66.40
54144;BME280;40050;47.324;18.792;2023-04-25T04:49:33;993.52;;;12.72;66.64
54144;BME280;40050;47.324;18.792;2023-04-25T04:51:34;993.48;;;12.71;66.58
54144;BME280;40050;47.324;18.792;2023-04-25T04:53:35;993.49;;;12.68;66.89
54144;BME280;40050;47.324;18.792;2023-04-25T04:55:36;993.45;;;12.66;67.28
54144;BME280;40050;47.324;18.792;2023-04-25T04:57:37;993.44;;;12.59;67.50
54144;BME280;40050;47.324;18.792;2023-04-25T04:59:38;993.42;;;12.57;67.50
54144;BME280;40050;47.324;18.792;2023-04-25T05:01:39;993.47;;;12.59;67.77
54144;BME280;40050;47.324;18.792;2023-04-25T05:03:40;993.45;;;12.54;68.39
54144;BME280;40050;47.324;18.792;2023-04-25T05:05:41;993.52;;;12.55;68.18
54144;BME280;40050;47.324;18.792;2023-04-25T05:07:42;993.47;;;12.50;68.39
54144;BME280;40050;47.324;18.792;2023-04-25T05:09:43;993.51;;;12.53;68.36
54144;BME280;40050;47.324;18.792;2023-04-25T05:11:44;993.49;;;12.56;68.38
54144;BME280;40050;47.324;18.792;2023-04-25T05:13:54;993.46;;;12.51;68.68
54144;BME280;40050;47.324;18.792;2023-04-25T05:15:55;993.47;;;12.56;68.72
54144;BME280;40050;47.324;18.792;2023-04-25T05:17:59;993.46;;;12.54;68.61
54144;BME280;40050;47.324;18.792;2023-04-25T05:20:00;993.48;;;12.47;68.87
54144;BME280;40050;47.324;18.792;2023-04-25T05:22:01;993.54;;;12.45;68.92
54144;BME280;40050;47.324;18.792;2023-04-25T05:24:07;993.57;;;12.44;69.18
54144;BME280;40050;47.324;18.792;2023-04-25T05:26:08;993.55;;;12.39;69.37
54144;BME280;40050;47.324;18.792;2023-04-25T05:28:09;993.59;;;12.39;69.38
54144;BME280;40050;47.324;18.792;2023-04-25T05:30:14;993.55;;;12.47;69.39
54144;BME280;40050;47.324;18.792;2023-04-25T05:32:17;993.51;;;12.50;69.25
54144;BME280;40050;47.324;18.792;2023-04-25T05:34:18;993.53;;;12.45;69.16
54144;BME280;40050;47.324;18.792;2023-04-25T05:36:22;993.50;;;12.40;69.43
54144;BME280;40050;47.324;18.792;2023-04-25T05:38:23;993.52;;;12.47;69.54
54144;BME280;40050;47.324;18.792;2023-04-25T05:40:24;993.52;;;12.45;69.43
54144;BME280;40050;47.324;18.792;2023-04-25T05:42:25;993.43;;;12.50;69.21
54144;BME280;40050;47.324;18.792;2023-04-25T05:44:26;993.44;;;12.51;69.25
54144;BME280;40050;47.324;18.792;2023-04-25T05:46:27;993.44;;;12.60;69.03
54144;BME280;40050;47.324;18.792;2023-04-25T05:48:28;993.51;;;12.61;68.67
54144;BME280;40050;47.324;18.792;2023-04-25T05:50:29;993.45;;;12.66;68.12
54144;BME280;40050;47.324;18.792;2023-04-25T05:52:30;993.47;;;12.69;68.58
54144;BME280;40050;47.324;18.792;2023-04-25T05:54:31;993.42;;;12.77;68.35
54144;BME280;40050;47.324;18.792;2023-04-25T05:56:32;993.45;;;12.81;67.93
54144;BME280;40050;47.324;18.792;2023-04-25T05:58:33;993.42;;;12.84;67.76
54144;BME280;40050;47.324;18.792;2023-04-25T06:00:34;993.45;;;12.92;67.72
54144;BME280;40050;47.324;18.792;2023-04-25T06:02:34;993.44;;;12.99;68.08
54144;BME280;40050;47.324;18.792;2023-04-25T06:04:35;993.47;;;13.10;67.80
54144;BME280;40050;47.324;18.792;2023-04-25T06:06:36;993.44;;;13.16;67.53
54144;BME280;40050;47.324;18.792;2023-04-25T06:08:37;993.37;;;13.19;67.20
54144;BME280;40050;47.324;18.792;2023-04-25T06:10:38;993.43;;;13.32;67.09
54144;BME280;40050;47.324;18.792;2023-04-25T06:12:39;993.43;;;13.33;66.32
54144;BME280;40050;47.324;18.792;2023-04-25T06:14:40;993.38;;;13.42;66.02
54144;BME280;40050;47.324;18.792;2023-04-25T06:16:41;993.40;;;13.47;65.60
54144;BME280;40050;47.324;18.792;2023-04-25T06:18:42;993.47;;;13.55;66.16
54144;BME280;40050;47.324;18.792;2023-04-25T06:20:43;993.49;;;13.65;65.81
54144;BME280;40050;47.324;18.792;2023-04-25T06:22:44;993.45;;;13.70;64.65
54144;BME280;40050;47.324;18.792;2023-04-25T06:24:45;993.46;;;13.75;63.94
54144;BME280;40050;47.324;18.792;2023-04-25T06:26:45;993.39;;;13.75;63.87
54144;BME280;40050;47.324;18.792;2023-04-25T06:28:46;993.49;;;13.83;64.01
54144;BME280;40050;47.324;18.792;2023-04-25T06:30:47;993.50;;;13.91;63.98
54144;BME280;40050;47.324;18.792;2023-04-25T06:32:48;993.53;;;14.02;64.18
54144;BME280;40050;47.324;18.792;2023-04-25T06:34:49;993.47;;;14.06;63.80
54144;BME280;40050;47.324;18.792;2023-04-25T06:36:50;993.46;;;14.07;63.48
54144;BME280;40050;47.324;18.792;2023-04-25T06:38:51;993.54;;;14.09;62.49
54144;BME280;40050;47.324;18.792;2023-04-25T06:40:52;993.37;;;14.04;62.77
54144;BME280;40050;47.324;18.792;2023-04-25T06:42:53;993.50;;;14.23;62.92
54144;BME280;40050;47.324;18.792;2023-04-25T06:44:54;993.24;;;14.15;62.57
54144;BME280;40050;47.324;18.792;2023-04-25T06:46:55;993.59;;;14.40;62.71
54144;BME280;40050;47.324;18.792;2023-04-25T06:48:56;993.62;;;14.48;63.28
54144;BME280;40050;47.324;18.792;2023-04-25T06:50:57;993.59;;;14.60;62.93
54144;BME280;40050;47.324;18.792;2023-04-25T06:52:58;993.62;;;14.63;62.40
54144;BME280;40050;47.324;18.792;2023-04-25T06:54:58;993.63;;;14.64;61.84
54144;BME280;40050;47.324;18.792;2023-04-25T06:56:59;993.68;;;14.71;61.75
54144;BME280;40050;47.324;18.792;2023-04-25T06:59:00;993.63;;;14.71;61.01
54144;BME280;40050;47.324;18.792;2023-04-25T07:01:01;993.62;;;14.73;60.92
54144;BME280;40050;47.324;18.792;2023-04-25T07:03:02;993.67;;;14.74;60.08
54144;BME280;40050;47.324;18.792;2023-04-25T07:05:03;993.68;;;14.81;61.39
54144;BME280;40050;47.324;18.792;2023-04-25T07:07:04;993.69;;;14.83;60.93
54144;BME280;40050;47.324;18.792;2023-04-25T07:09:05;993.76;;;14.86;61.02
54144;BME280;40050;47.324;18.792;2023-04-25T07:11:09;993.68;;;14.89;60.12
54144;BME280;40050;47.324;18.792;2023-04-25T07:13:10;993.69;;;14.86;59.93
54144;BME280;40050;47.324;18.792;2023-04-25T07:15:11;993.69;;;14.81;59.91
54144;BME280;40050;47.324;18.792;2023-04-25T07:17:12;993.69;;;14.82;59.90
54144;BME280;40050;47.324;18.792;2023-04-25T07:19:13;993.63;;;14.90;60.45
54144;BME280;40050;47.324;18.792;2023-04-25T07:21:24;993.62;;;14.90;60.08
54144;BME280;40050;47.324;18.792;2023-04-25T07:23:36;993.66;;;14.94;60.31
54144;BME280;40050;47.324;18.792;2023-04-25T07:25:37;993.67;;;14.93;59.76
54144;BME280;40050;47.324;18.792;2023-04-25T07:27:38;993.63;;;14.92;59.30
54144;BME280;40050;47.324;18.792;2023-04-25T07:29:39;993.70;;;14.88;59.11
54144;BME280;40050;47.324;18.792;2023-04-25T07:31:40;993.66;;;14.86;59.16
54144;BME280;40050;47.324;18.792;2023-04-25T07:33:41;993.70;;;14.84;59.60
54144;BME280;40050;47.324;18.792;2023-04-25T07:35:42;993.60;;;14.83;59.71
54144;BME280;40050;47.324;18.792;2023-04-25T07:37:44;993.71;;;14.92;59.58
54144;BME280;40050;47.324;18.792;2023-04-25T07:39:48;993.73;;;14.95;60.11
54144;BME280;40050;47.324;18.792;2023-04-25T07:41:49;993.72;;;15.02;59.85
54144;BME280;40050;47.324;18.792;2023-04-25T07:43:50;993.73;;;15.07;59.74
54144;BME280;40050;47.324;18.792;2023-04-25T07:45:51;993.76;;;15.09;59.70
54144;BME280;40050;47.324;18.792;2023-04-25T07:47:52;993.70;;;15.15;59.20
54144;BME280;40050;47.324;18.792;2023-04-25T07:49:53;993.69;;;15.17;58.80
54144;BME280;40050;47.324;18.792;2023-04-25T07:51:54;993.71;;;15.19;58.16
54144;BME280;40050;47.324;18.792;2023-04-25T07:53:55;993.73;;;15.18;58.05
54144;BME280;40050;47.324;18.792;2023-04-25T07:55:56;993.66;;;15.13;58.22
54144;BME280;40050;47.324;18.792;2023-04-25T07:57:57;993.69;;;15.17;58.33
54144;BME280;40050;47.324;18.792;2023-04-25T08:04:38;993.66;;;15.24;58.29
54144;BME280;40050;47.324;18.792;2023-04-25T08:06:42;993.65;;;15.27;58.31
54144;BME280;40050;47.324;18.792;2023-04-25T08:08:43;993.60;;;15.23;57.44
54144;BME280;40050;47.324;18.792;2023-04-25T08:10:43;993.67;;;15.31;58.18
54144;BME280;40050;47.324;18.792;2023-04-25T08:12:44;993.67;;;15.39;58.32
54144;BME280;40050;47.324;18.792;2023-04-25T08:14:45;993.65;;;15.45;58.55
54144;BME280;40050;47.324;18.792;2023-04-25T08:16:46;993.62;;;15.48;58.83
54144;BME280;40050;47.324;18.792;2023-04-25T08:18:47;993.58;;;15.59;58.11
54144;BME280;40050;47.324;18.792;2023-04-25T08:20:49;993.36;;;15.57;58.21
54144;BME280;40050;47.324;18.792;2023-04-25T08:22:50;993.61;;;15.54;57.60
54144;BME280;40050;47.324;18.792;2023-04-25T08:24:51;993.68;;;15.57;58.21
54144;BME280;40050;47.324;18.792;2023-04-25T08:26:58;993.78;;;15.64;58.18
54144;BME280;40050;47.324;18.792;2023-04-25T08:28:59;993.73;;;15.61;57.58
54144;BME280;40050;47.324;18.792;2023-04-25T08:31:05;993.76;;;15.64;57.64
54144;BME280;40050;47.324;18.792;2023-04-25T08:33:08;993.78;;;15.73;57.83
54144;BME280;40050;47.324;18.792;2023-04-25T08:37:12;993.49;;;15.65;57.04
54144;BME280;40050;47.324;18.792;2023-04-25T08:52:24;993.90;;;15.97;56.57
54144;BME280;40050;47.324;18.792;2023-04-25T08:54:35;993.96;;;16.05;56.24
54144;BME280;40050;47.324;18.792;2023-04-25T09:01:00;993.89;;;16.12;56.05
54144;BME280;40050;47.324;18.792;2023-04-25T09:15:55;993.89;;;16.42;54.26
54144;BME280;40050;47.324;18.792;2023-04-25T09:18:06;993.88;;;16.54;54.40
54144;BME280;40050;47.324;18.792;2023-04-25T09:41:58;993.82;;;17.32;50.71
54144;BME280;40050;47.324;18.792;2023-04-25T09:44:00;993.85;;;17.30;50.76
54144;BME280;40050;47.324;18.792;2023-04-25T09:52:25;993.82;;;17.28;50.13
54144;BME280;40050;47.324;18.792;2023-04-25T10:05:59;993.80;;;17.47;48.68
54144;BME280;40050;47.324;18.792;2023-04-25T10:08:02;993.76;;;17.41;48.65
54144;BME280;40050;47.324;18.792;2023-04-25T10:10:38;993.71;;;17.31;49.43
54144;BME280;40050;47.324;18.792;2023-04-25T10:13:00;993.84;;;17.31;49.12
54144;BME280;40050;47.324;18.792;2023-04-25T10:15:10;993.83;;;17.39;49.92
54144;BME280;40050;47.324;18.792;2023-04-25T10:19:15;993.79;;;17.75;50.41
54144;BME280;40050;47.324;18.792;2023-04-25T10:43:45;993.71;;;18.46;48.53
54144;BME280;40050;47.324;18.792;2023-04-25T10:46:01;993.80;;;18.56;48.17
54144;BME280;40050;47.324;18.792;2023-04-25T10:52:25;993.85;;;18.59;46.20
54144;BME280;40050;47.324;18.792;2023-04-25T10:58:42;993.89;;;18.50;45.06
54144;BME280;40050;47.324;18.792;2023-04-25T11:15:29;993.87;;;18.34;43.97
54144;BME280;40050;47.324;18.792;2023-04-25T11:19:36;993.94;;;18.52;45.47
54144;BME280;40050;47.324;18.792;2023-04-25T11:21:40;994.01;;;18.66;45.21
54144;BME280;40050;47.324;18.792;2023-04-25T11:23:44;993.97;;;18.83;45.47
54144;BME280;40050;47.324;18.792;2023-04-25T11:25:51;993.93;;;18.96;46.55
54144;BME280;40050;47.324;18.792;2023-04-25T11:28:20;994.05;;;19.16;42.48
54144;BME280;40050;47.324;18.792;2023-04-25T11:35:15;994.18;;;19.77;44.00
54144;BME280;40050;47.324;18.792;2023-04-25T11:37:16;994.10;;;19.84;41.91
54144;BME280;40050;47.324;18.792;2023-04-25T11:39:17;994.06;;;19.90;41.99
54144;BME280;40050;47.324;18.792;2023-04-25T11:41:23;994.09;;;19.98;42.54
54144;BME280;40050;47.324;18.792;2023-04-25T11:43:25;994.05;;;20.15;42.20
54144;BME280;40050;47.324;18.792;2023-04-25T11:45:26;994.03;;;20.21;40.22
54144;BME280;40050;47.324;18.792;2023-04-25T11:47:31;994.13;;;20.28;40.91
54144;BME280;40050;47.324;18.792;2023-04-25T11:49:32;994.19;;;20.28;39.38
54144;BME280;40050;47.324;18.792;2023-04-25T11:51:43;994.16;;;20.25;39.53
54144;BME280;40050;47.324;18.792;2023-04-25T11:53:50;994.12;;;20.28;40.33
54144;BME280;40050;47.324;18.792;2023-04-25T11:58:20;994.18;;;20.30;37.62
54144;BME280;40050;47.324;18.792;2023-04-25T12:02:55;994.21;;;20.54;40.07
54144;BME280;40050;47.324;18.792;2023-04-25T12:07:32;994.14;;;20.58;38.06
54144;BME280;40050;47.324;18.792;2023-04-25T12:49:41;993.84;;;20.58;38.00
54144;BME280;40050;47.324;18.792;2023-04-25T12:53:46;993.82;;;20.48;36.71
54144;BME280;40050;47.324;18.792;2023-04-25T12:55:52;993.76;;;20.52;37.16
54144;BME280;40050;47.324;18.792;2023-04-25T12:57:53;993.75;;;20.55;37.49
54144;BME280;40050;47.324;18.792;2023-04-25T12:59:57;993.80;;;20.71;37.69
54144;BME280;40050;47.324;18.792;2023-04-25T13:02:07;993.79;;;20.77;37.15
54144;BME280;40050;47.324;18.792;2023-04-25T13:04:10;993.77;;;20.89;37.59
54144;BME280;40050;47.324;18.792;2023-04-25T13:06:20;993.80;;;20.95;36.63
54144;BME280;40050;47.324;18.792;2023-04-25T13:08:33;993.76;;;20.94;35.84
54144;BME280;40050;47.324;18.792;2023-04-25T13:10:34;993.75;;;20.92;36.27
54144;BME280;40050;47.324;18.792;2023-04-25T13:12:35;993.82;;;21.00;36.51
54144;BME280;40050;47.324;18.792;2023-04-25T13:14:40;993.74;;;21.12;36.36
54144;BME280;40050;47.324;18.792;2023-04-25T13:16:41;993.75;;;21.25;36.69
54144;BME280;40050;47.324;18.792;2023-04-25T13:18:42;993.73;;;21.24;35.92
54144;BME280;40050;47.324;18.792;2023-04-25T13:20:43;993.70;;;21.24;35.74
54144;BME280;40050;47.324;18.792;2023-04-25T13:22:44;993.73;;;21.28;36.38
54144;BME280;40050;47.324;18.792;2023-04-25T13:24:45;993.75;;;21.42;36.93
54144;BME280;40050;47.324;18.792;2023-04-25T13:26:47;993.67;;;21.58;36.37
54144;BME280;40050;47.324;18.792;2023-04-25T13:28:50;993.70;;;21.70;35.91
54144;BME280;40050;47.324;18.792;2023-04-25T13:30:51;993.70;;;21.79;35.78
54144;BME280;40050;47.324;18.792;2023-04-25T13:32:58;993.68;;;21.96;35.55
54144;BME280;40050;47.324;18.792;2023-04-25T13:34:59;993.37;;;21.81;34.95
54144;BME280;40050;47.324;18.792;2023-04-25T13:37:00;993.61;;;21.93;34.54
54144;BME280;40050;47.324;18.792;2023-04-25T13:39:01;993.64;;;21.99;34.95
54144;BME280;40050;47.324;18.792;2023-04-25T13:41:02;993.61;;;21.98;34.54
54144;BME280;40050;47.324;18.792;2023-04-25T13:43:03;993.67;;;21.92;34.87
54144;BME280;40050;47.324;18.792;2023-04-25T13:45:04;993.60;;;21.78;34.14
54144;BME280;40050;47.324;18.792;2023-04-25T13:47:05;993.66;;;21.63;34.38
54144;BME280;40050;47.324;18.792;2023-04-25T13:49:06;993.55;;;21.46;35.10
54144;BME280;40050;47.324;18.792;2023-04-25T13:51:07;993.59;;;21.34;34.91
54144;BME280;40050;47.324;18.792;2023-04-25T13:53:08;993.54;;;21.31;35.29
54144;BME280;40050;47.324;18.792;2023-04-25T13:55:09;993.56;;;21.39;35.63